sensor_id;sensor_type;location;lat;lon;timestamp;P1;durP1;ratioP1;P2;durP2;ratioP2
25263;SDS011;13211;51.796;5.808;2022-09-09T00:03:54;5.75;;;2.30;;
25263;SDS011;13211;51.796;5.808;2022-09-09T00:06:30;5.43;;;2.28;;
25263;SDS011;13211;51.796;5.808;2022-09-09T00:09:07;8.73;;;1.95;;
25263;SDS011;13211;51.796;5.808;2022-09-09T00:14:37;7.05;;;2.50;;
25263;SDS011;13211;51.796;5.808;2022-09-09T00:17:23;4.47;;;2.08;;
25263;SDS011;13211;51.796;5.808;2022-09-09T00:20:14;3.35;;;1.80;;
25263;SDS011;13211;51.796;5.808;2022-09-09T00:22:51;6.57;;;2.10;;
25263;SDS011;13211;51.796;5.808;2022-09-09T00:25:39;5.35;;;1.90;;
25263;SDS011;13211;51.796;5.808;2022-09-09T00:28:19;3.63;;;1.70;;
25263;SDS011;13211;51.796;5.808;2022-09-09T00:30:49;5.07;;;1.90;;
25263;SDS011;13211;51.796;5.808;2022-09-09T00:33:19;5.22;;;2.20;;
25263;SDS011;13211;51.796;5.808;2022-09-09T00:38:23;4.10;;;1.90;;
25263;SDS011;13211;51.796;5.808;2022-09-09T00:57:07;3.08;;;2.15;;
25263;SDS011;13211;51.796;5.808;2022-09-09T00:59:52;5.28;;;2.20;;
25263;SDS011;13211;51.796;5.808;2022-09-09T01:05:36;6.05;;;2.35;;
25263;SDS011;13211;51.796;5.808;2022-09-09T01:11:07;4.97;;;2.40;;
25263;SDS011;13211;51.796;5.808;2022-09-09T01:13:43;5.78;;;2.30;;
25263;SDS011;13211;51.796;5.808;2022-09-09T01:16:17;6.65;;;2.95;;
25263;SDS011;13211;51.796;5.808;2022-09-09T01:18:46;3.58;;;2.42;;
25263;SDS011;13211;51.796;5.808;2022-09-09T01:21:29;3.42;;;2.80;;
25263;SDS011;13211;51.796;5.808;2022-09-09T01:27:39;4.97;;;2.50;;
25263;SDS011;13211;51.796;5.808;2022-09-09T01:30:13;4.05;;;2.42;;
25263;SDS011;13211;51.796;5.808;2022-09-09T01:32:45;5.25;;;2.70;;
25263;SDS011;13211;51.796;5.808;2022-09-09T01:35:29;3.63;;;2.42;;
25263;SDS011;13211;51.796;5.808;2022-09-09T01:38:28;4.40;;;3.00;;
25263;SDS011;13211;51.796;5.808;2022-09-09T01:41:01;3.58;;;2.30;;
25263;SDS011;13211;51.796;5.808;2022-09-09T01:43:40;2.88;;;2.45;;
25263;SDS011;13211;51.796;5.808;2022-09-09T01:46:09;4.00;;;2.38;;
25263;SDS011;13211;51.796;5.808;2022-09-09T01:48:40;4.70;;;2.70;;
25263;SDS011;13211;51.796;5.808;2022-09-09T01:51:10;5.72;;;2.63;;
25263;SDS011;13211;51.796;5.808;2022-09-09T01:53:41;9.07;;;2.65;;
25263;SDS011;13211;51.796;5.808;2022-09-09T02:02:22;8.07;;;2.63;;
25263;SDS011;13211;51.796;5.808;2022-09-09T02:05:11;5.40;;;2.70;;
25263;SDS011;13211;51.796;5.808;2022-09-09T02:07:50;4.18;;;2.53;;
25263;SDS011;13211;51.796;5.808;2022-09-09T02:13:30;6.57;;;2.70;;
25263;SDS011;13211;51.796;5.808;2022-09-09T02:16:10;10.10;;;2.65;;
25263;SDS011;13211;51.796;5.808;2022-09-09T02:18:47;5.93;;;2.50;;
25263;SDS011;13211;51.796;5.808;2022-09-09T02:21:33;5.50;;;2.47;;
25263;SDS011;13211;51.796;5.808;2022-09-09T02:24:08;3.20;;;2.35;;
25263;SDS011;13211;51.796;5.808;2022-09-09T02:29:23;7.18;;;2.60;;
25263;SDS011;13211;51.796;5.808;2022-09-09T02:32:04;6.35;;;2.80;;
25263;SDS011;13211;51.796;5.808;2022-09-09T02:34:39;6.53;;;2.83;;
25263;SDS011;13211;51.796;5.808;2022-09-09T02:37:12;8.75;;;2.78;;
25263;SDS011;13211;51.796;5.808;2022-09-09T02:39:46;6.25;;;2.78;;
25263;SDS011;13211;51.796;5.808;2022-09-09T02:42:18;4.57;;;3.03;;
25263;SDS011;13211;51.796;5.808;2022-09-09T02:44:45;4.63;;;2.75;;
25263;SDS011;13211;51.796;5.808;2022-09-09T02:50:46;7.10;;;2.75;;
25263;SDS011;13211;51.796;5.808;2022-09-09T02:53:17;7.45;;;2.90;;
25263;SDS011;13211;51.796;5.808;2022-09-09T02:56:14;5.93;;;2.90;;
25263;SDS011;13211;51.796;5.808;2022-09-09T02:58:46;8.75;;;2.95;;
25263;SDS011;13211;51.796;5.808;2022-09-09T03:01:16;4.63;;;2.70;;
25263;SDS011;13211;51.796;5.808;2022-09-09T03:03:45;7.63;;;3.40;;
25263;SDS011;13211;51.796;5.808;2022-09-09T03:06:16;6.50;;;2.72;;
25263;SDS011;13211;51.796;5.808;2022-09-09T03:08:48;7.38;;;3.00;;
25263;SDS011;13211;51.796;5.808;2022-09-09T03:11:23;10.68;;;3.50;;
25263;SDS011;13211;51.796;5.808;2022-09-09T03:13:51;9.27;;;3.42;;
25263;SDS011;13211;51.796;5.808;2022-09-09T03:16:23;4.47;;;2.83;;
25263;SDS011;13211;51.796;5.808;2022-09-09T03:18:52;12.40;;;3.55;;
25263;SDS011;13211;51.796;5.808;2022-09-09T03:21:23;6.65;;;3.42;;
25263;SDS011;13211;51.796;5.808;2022-09-09T03:23:52;5.22;;;2.97;;
25263;SDS011;13211;51.796;5.808;2022-09-09T03:26:23;10.95;;;4.00;;
25263;SDS011;13211;51.796;5.808;2022-09-09T03:28:51;9.82;;;3.60;;
25263;SDS011;13211;51.796;5.808;2022-09-09T03:31:22;8.52;;;3.55;;
25263;SDS011;13211;51.796;5.808;2022-09-09T03:33:53;3.92;;;2.83;;
25263;SDS011;13211;51.796;5.808;2022-09-09T03:36:27;8.20;;;3.88;;
25263;SDS011;13211;51.796;5.808;2022-09-09T03:38:59;10.52;;;3.83;;
25263;SDS011;13211;51.796;5.808;2022-09-09T03:41:31;11.40;;;3.50;;
25263;SDS011;13211;51.796;5.808;2022-09-09T03:44:01;5.35;;;3.53;;
25263;SDS011;13211;51.796;5.808;2022-09-09T03:46:36;7.32;;;4.03;;
25263;SDS011;13211;51.796;5.808;2022-09-09T03:49:05;7.78;;;3.53;;
25263;SDS011;13211;51.796;5.808;2022-09-09T03:51:33;6.38;;;3.28;;
25263;SDS011;13211;51.796;5.808;2022-09-09T03:54:05;12.52;;;3.60;;
25263;SDS011;13211;51.796;5.808;2022-09-09T03:56:37;9.63;;;3.72;;
25263;SDS011;13211;51.796;5.808;2022-09-09T03:59:08;16.77;;;4.05;;
25263;SDS011;13211;51.796;5.808;2022-09-09T04:01:38;10.13;;;3.80;;
25263;SDS011;13211;51.796;5.808;2022-09-09T04:04:07;7.47;;;3.47;;
25263;SDS011;13211;51.796;5.808;2022-09-09T04:06:35;10.07;;;3.58;;
25263;SDS011;13211;51.796;5.808;2022-09-09T04:09:03;8.27;;;3.70;;
25263;SDS011;13211;51.796;5.808;2022-09-09T04:11:34;8.43;;;3.60;;
25263;SDS011;13211;51.796;5.808;2022-09-09T04:14:02;9.27;;;4.05;;
25263;SDS011;13211;51.796;5.808;2022-09-09T04:16:35;9.02;;;4.03;;
25263;SDS011;13211;51.796;5.808;2022-09-09T04:19:04;6.10;;;3.47;;
25263;SDS011;13211;51.796;5.808;2022-09-09T04:21:36;11.52;;;3.28;;
25263;SDS011;13211;51.796;5.808;2022-09-09T04:24:05;8.73;;;3.65;;
25263;SDS011;13211;51.796;5.808;2022-09-09T04:26:36;12.43;;;3.90;;
25263;SDS011;13211;51.796;5.808;2022-09-09T04:29:06;8.30;;;3.70;;
25263;SDS011;13211;51.796;5.808;2022-09-09T04:31:38;8.95;;;3.83;;
25263;SDS011;13211;51.796;5.808;2022-09-09T04:34:09;10.02;;;3.60;;
25263;SDS011;13211;51.796;5.808;2022-09-09T04:36:36;13.30;;;3.80;;
25263;SDS011;13211;51.796;5.808;2022-09-09T04:39:06;8.43;;;3.95;;
25263;SDS011;13211;51.796;5.808;2022-09-09T04:41:33;8.68;;;4.22;;
25263;SDS011;13211;51.796;5.808;2022-09-09T04:44:03;8.77;;;3.22;;
25263;SDS011;13211;51.796;5.808;2022-09-09T04:46:33;12.05;;;3.92;;
25263;SDS011;13211;51.796;5.808;2022-09-09T04:49:01;15.67;;;4.33;;
25263;SDS011;13211;51.796;5.808;2022-09-09T04:51:32;12.18;;;4.15;;
25263;SDS011;13211;51.796;5.808;2022-09-09T04:54:03;10.80;;;3.72;;
25263;SDS011;13211;51.796;5.808;2022-09-09T04:56:32;10.95;;;3.83;;
25263;SDS011;13211;51.796;5.808;2022-09-09T04:59:01;13.63;;;4.43;;
25263;SDS011;13211;51.796;5.808;2022-09-09T05:01:42;11.70;;;4.10;;
25263;SDS011;13211;51.796;5.808;2022-09-09T05:04:11;13.77;;;3.97;;
25263;SDS011;13211;51.796;5.808;2022-09-09T05:06:39;16.67;;;4.07;;
25263;SDS011;13211;51.796;5.808;2022-09-09T05:09:07;10.18;;;4.13;;
25263;SDS011;13211;51.796;5.808;2022-09-09T05:11:36;12.52;;;3.90;;
25263;SDS011;13211;51.796;5.808;2022-09-09T05:14:11;11.30;;;3.47;;
25263;SDS011;13211;51.796;5.808;2022-09-09T05:16:41;5.40;;;3.70;;
25263;SDS011;13211;51.796;5.808;2022-09-09T05:19:11;11.05;;;4.22;;
25263;SDS011;13211;51.796;5.808;2022-09-09T05:21:45;12.23;;;3.63;;
25263;SDS011;13211;51.796;5.808;2022-09-09T05:24:17;13.27;;;4.30;;
25263;SDS011;13211;51.796;5.808;2022-09-09T05:26:49;14.02;;;3.72;;
25263;SDS011;13211;51.796;5.808;2022-09-09T05:29:17;20.52;;;4.18;;
25263;SDS011;13211;51.796;5.808;2022-09-09T05:31:58;15.63;;;4.13;;
25263;SDS011;13211;51.796;5.808;2022-09-09T05:34:27;9.20;;;3.53;;
25263;SDS011;13211;51.796;5.808;2022-09-09T05:36:56;8.90;;;3.45;;
25263;SDS011;13211;51.796;5.808;2022-09-09T05:39:25;14.73;;;3.95;;
25263;SDS011;13211;51.796;5.808;2022-09-09T05:41:54;13.73;;;3.92;;
25263;SDS011;13211;51.796;5.808;2022-09-09T05:44:24;12.98;;;3.50;;
25263;SDS011;13211;51.796;5.808;2022-09-09T05:46:55;11.90;;;3.80;;
25263;SDS011;13211;51.796;5.808;2022-09-09T05:49:23;11.25;;;3.97;;
25263;SDS011;13211;51.796;5.808;2022-09-09T05:51:52;16.77;;;3.53;;
25263;SDS011;13211;51.796;5.808;2022-09-09T05:56:51;14.95;;;3.50;;
25263;SDS011;13211;51.796;5.808;2022-09-09T05:59:21;14.80;;;3.45;;
25263;SDS011;13211;51.796;5.808;2022-09-09T06:01:56;14.77;;;3.58;;
25263;SDS011;13211;51.796;5.808;2022-09-09T06:04:34;14.00;;;3.28;;
25263;SDS011;13211;51.796;5.808;2022-09-09T06:07:04;11.18;;;3.70;;
25263;SDS011;13211;51.796;5.808;2022-09-09T06:09:45;8.18;;;2.88;;
25263;SDS011;13211;51.796;5.808;2022-09-09T06:12:12;13.05;;;3.03;;
25263;SDS011;13211;51.796;5.808;2022-09-09T06:14:41;10.63;;;3.80;;
25263;SDS011;13211;51.796;5.808;2022-09-09T06:17:15;12.52;;;3.42;;
25263;SDS011;13211;51.796;5.808;2022-09-09T06:19:44;18.85;;;3.80;;
25263;SDS011;13211;51.796;5.808;2022-09-09T06:22:14;14.38;;;3.55;;
25263;SDS011;13211;51.796;5.808;2022-09-09T06:24:44;11.20;;;3.30;;
25263;SDS011;13211;51.796;5.808;2022-09-09T06:27:13;20.13;;;4.00;;
25263;SDS011;13211;51.796;5.808;2022-09-09T06:29:45;15.18;;;3.78;;
25263;SDS011;13211;51.796;5.808;2022-09-09T06:32:15;13.68;;;3.55;;
25263;SDS011;13211;51.796;5.808;2022-09-09T06:34:45;10.90;;;3.30;;
25263;SDS011;13211;51.796;5.808;2022-09-09T06:37:18;10.63;;;3.10;;
25263;SDS011;13211;51.796;5.808;2022-09-09T06:39:48;21.30;;;3.85;;
25263;SDS011;13211;51.796;5.808;2022-09-09T06:42:17;14.27;;;3.10;;
25263;SDS011;13211;51.796;5.808;2022-09-09T06:44:48;19.58;;;3.60;;
25263;SDS011;13211;51.796;5.808;2022-09-09T06:47:43;19.08;;;3.22;;
25263;SDS011;13211;51.796;5.808;2022-09-09T06:50:13;10.48;;;3.08;;
25263;SDS011;13211;51.796;5.808;2022-09-09T06:52:41;17.15;;;3.63;;
25263;SDS011;13211;51.796;5.808;2022-09-09T06:55:09;17.80;;;3.88;;
25263;SDS011;13211;51.796;5.808;2022-09-09T06:57:40;17.73;;;3.60;;
25263;SDS011;13211;51.796;5.808;2022-09-09T07:00:14;20.58;;;4.63;;
25263;SDS011;13211;51.796;5.808;2022-09-09T07:02:42;18.98;;;4.20;;
25263;SDS011;13211;51.796;5.808;2022-09-09T07:05:12;14.50;;;4.13;;
25263;SDS011;13211;51.796;5.808;2022-09-09T07:07:44;15.20;;;4.10;;
25263;SDS011;13211;51.796;5.808;2022-09-09T07:12:43;19.23;;;3.80;;
25263;SDS011;13211;51.796;5.808;2022-09-09T07:15:14;16.40;;;3.85;;
25263;SDS011;13211;51.796;5.808;2022-09-09T07:17:46;17.58;;;4.03;;
25263;SDS011;13211;51.796;5.808;2022-09-09T07:20:17;17.08;;;4.20;;
25263;SDS011;13211;51.796;5.808;2022-09-09T07:22:45;15.82;;;4.38;;
25263;SDS011;13211;51.796;5.808;2022-09-09T07:25:14;14.32;;;4.28;;
25263;SDS011;13211;51.796;5.808;2022-09-09T07:27:48;11.48;;;3.15;;
25263;SDS011;13211;51.796;5.808;2022-09-09T07:30:16;13.25;;;3.80;;
25263;SDS011;13211;51.796;5.808;2022-09-09T07:32:53;11.65;;;3.40;;
25263;SDS011;13211;51.796;5.808;2022-09-09T07:35:20;16.08;;;3.70;;
25263;SDS011;13211;51.796;5.808;2022-09-09T07:37:48;19.52;;;3.50;;
25263;SDS011;13211;51.796;5.808;2022-09-09T07:42:49;17.85;;;3.92;;
25263;SDS011;13211;51.796;5.808;2022-09-09T07:45:18;15.38;;;3.53;;
25263;SDS011;13211;51.796;5.808;2022-09-09T07:47:46;8.88;;;3.00;;
25263;SDS011;13211;51.796;5.808;2022-09-09T07:50:26;14.57;;;4.22;;
25263;SDS011;13211;51.796;5.808;2022-09-09T07:52:59;21.95;;;3.42;;
25263;SDS011;13211;51.796;5.808;2022-09-09T07:55:35;16.38;;;3.25;;
25263;SDS011;13211;51.796;5.808;2022-09-09T07:58:04;14.25;;;3.13;;
25263;SDS011;13211;51.796;5.808;2022-09-09T08:00:38;16.20;;;3.15;;
25263;SDS011;13211;51.796;5.808;2022-09-09T08:03:13;15.82;;;3.60;;
25263;SDS011;13211;51.796;5.808;2022-09-09T08:05:42;19.88;;;3.45;;
25263;SDS011;13211;51.796;5.808;2022-09-09T08:08:14;9.90;;;2.38;;
25263;SDS011;13211;51.796;5.808;2022-09-09T08:10:43;14.15;;;3.20;;
25263;SDS011;13211;51.796;5.808;2022-09-09T08:13:11;12.75;;;2.75;;
25263;SDS011;13211;51.796;5.808;2022-09-09T08:15:44;16.20;;;2.97;;
25263;SDS011;13211;51.796;5.808;2022-09-09T08:18:12;11.35;;;2.80;;
25263;SDS011;13211;51.796;5.808;2022-09-09T08:20:42;17.48;;;2.50;;
25263;SDS011;13211;51.796;5.808;2022-09-09T08:23:10;12.25;;;2.50;;
25263;SDS011;13211;51.796;5.808;2022-09-09T08:25:42;13.48;;;1.98;;
25263;SDS011;13211;51.796;5.808;2022-09-09T08:28:15;15.48;;;2.28;;
25263;SDS011;13211;51.796;5.808;2022-09-09T08:30:43;14.15;;;1.95;;
25263;SDS011;13211;51.796;5.808;2022-09-09T08:33:11;16.65;;;2.83;;
25263;SDS011;13211;51.796;5.808;2022-09-09T08:35:49;14.82;;;2.28;;
25263;SDS011;13211;51.796;5.808;2022-09-09T08:38:19;12.45;;;2.25;;
25263;SDS011;13211;51.796;5.808;2022-09-09T08:40:47;12.73;;;2.83;;
25263;SDS011;13211;51.796;5.808;2022-09-09T08:43:21;16.42;;;2.22;;
25263;SDS011;13211;51.796;5.808;2022-09-09T08:51:19;11.90;;;1.77;;
25263;SDS011;13211;51.796;5.808;2022-09-09T08:53:50;7.22;;;2.03;;
25263;SDS011;13211;51.796;5.808;2022-09-09T08:56:26;9.80;;;1.70;;
25263;SDS011;13211;51.796;5.808;2022-09-09T08:59:02;8.88;;;2.00;;
25263;SDS011;13211;51.796;5.808;2022-09-09T09:16:23;14.80;;;2.17;;
25263;SDS011;13211;51.796;5.808;2022-09-09T09:19:04;12.65;;;2.05;;
25263;SDS011;13211;51.796;5.808;2022-09-09T09:21:44;14.98;;;2.45;;
25263;SDS011;13211;51.796;5.808;2022-09-09T09:24:22;15.95;;;2.75;;
25263;SDS011;13211;51.796;5.808;2022-09-09T09:27:52;14.75;;;2.13;;
25263;SDS011;13211;51.796;5.808;2022-09-09T09:30:39;15.93;;;2.10;;
25263;SDS011;13211;51.796;5.808;2022-09-09T09:33:29;8.55;;;1.80;;
25263;SDS011;13211;51.796;5.808;2022-09-09T09:36:38;10.85;;;2.13;;
25263;SDS011;13211;51.796;5.808;2022-09-09T09:39:26;16.02;;;1.75;;
25263;SDS011;13211;51.796;5.808;2022-09-09T09:42:17;15.27;;;1.85;;
25263;SDS011;13211;51.796;5.808;2022-09-09T09:44:53;11.93;;;2.30;;
25263;SDS011;13211;51.796;5.808;2022-09-09T09:47:22;11.02;;;2.17;;
25263;SDS011;13211;51.796;5.808;2022-09-09T09:50:02;7.57;;;1.65;;
25263;SDS011;13211;51.796;5.808;2022-09-09T09:52:36;13.55;;;2.08;;
25263;SDS011;13211;51.796;5.808;2022-09-09T09:55:12;17.13;;;1.98;;
25263;SDS011;13211;51.796;5.808;2022-09-09T09:57:43;12.68;;;2.10;;
25263;SDS011;13211;51.796;5.808;2022-09-09T10:00:20;17.42;;;2.47;;
25263;SDS011;13211;51.796;5.808;2022-09-09T10:02:59;11.70;;;1.98;;
25263;SDS011;13211;51.796;5.808;2022-09-09T10:05:31;9.65;;;1.80;;
25263;SDS011;13211;51.796;5.808;2022-09-09T10:08:11;10.10;;;1.77;;
25263;SDS011;13211;51.796;5.808;2022-09-09T10:10:52;8.60;;;1.73;;
25263;SDS011;13211;51.796;5.808;2022-09-09T10:13:50;14.43;;;2.20;;
25263;SDS011;13211;51.796;5.808;2022-09-09T10:16:58;10.15;;;1.98;;
25263;SDS011;13211;51.796;5.808;2022-09-09T10:19:38;10.55;;;2.08;;
25263;SDS011;13211;51.796;5.808;2022-09-09T10:33:10;14.40;;;1.80;;
25263;SDS011;13211;51.796;5.808;2022-09-09T10:35:50;12.23;;;2.22;;
25263;SDS011;13211;51.796;5.808;2022-09-09T10:41:15;10.25;;;2.10;;
25263;SDS011;13211;51.796;5.808;2022-09-09T10:50:09;12.83;;;1.97;;
25263;SDS011;13211;51.796;5.808;2022-09-09T10:55:33;14.75;;;2.38;;
25263;SDS011;13211;51.796;5.808;2022-09-09T10:58:09;11.05;;;1.90;;
25263;SDS011;13211;51.796;5.808;2022-09-09T11:00:45;11.13;;;2.05;;
25263;SDS011;13211;51.796;5.808;2022-09-09T11:05:52;12.07;;;2.35;;
25263;SDS011;13211;51.796;5.808;2022-09-09T11:08:28;10.13;;;1.90;;
25263;SDS011;13211;51.796;5.808;2022-09-09T11:11:06;12.35;;;2.00;;
25263;SDS011;13211;51.796;5.808;2022-09-09T11:21:40;10.00;;;2.10;;
25263;SDS011;13211;51.796;5.808;2022-09-09T11:24:18;8.98;;;2.30;;
25263;SDS011;13211;51.796;5.808;2022-09-09T11:26:59;12.88;;;2.55;;
25263;SDS011;13211;51.796;5.808;2022-09-09T11:32:06;11.57;;;2.38;;
25263;SDS011;13211;51.796;5.808;2022-09-09T11:35:02;11.05;;;2.60;;
25263;SDS011;13211;51.796;5.808;2022-09-09T11:45:33;15.32;;;2.75;;
25263;SDS011;13211;51.796;5.808;2022-09-09T11:48:03;9.48;;;2.13;;
25263;SDS011;13211;51.796;5.808;2022-09-09T11:50:36;11.05;;;2.67;;
25263;SDS011;13211;51.796;5.808;2022-09-09T11:53:14;13.82;;;2.30;;
25263;SDS011;13211;51.796;5.808;2022-09-09T11:56:00;7.90;;;1.92;;
25263;SDS011;13211;51.796;5.808;2022-09-09T11:58:29;11.63;;;2.40;;
25263;SDS011;13211;51.796;5.808;2022-09-09T12:01:12;8.30;;;1.90;;
25263;SDS011;13211;51.796;5.808;2022-09-09T12:04:05;15.00;;;2.97;;
25263;SDS011;13211;51.796;5.808;2022-09-09T12:10:22;8.38;;;2.83;;
25263;SDS011;13211;51.796;5.808;2022-09-09T12:12:26;13.43;;;2.47;;
25263;SDS011;13211;51.796;5.808;2022-09-09T12:17:40;13.10;;;2.95;;
25263;SDS011;13211;51.796;5.808;2022-09-09T12:20:14;9.15;;;2.47;;
25263;SDS011;13211;51.796;5.808;2022-09-09T12:25:54;8.10;;;2.03;;
25263;SDS011;13211;51.796;5.808;2022-09-09T12:28:41;9.40;;;2.22;;
25263;SDS011;13211;51.796;5.808;2022-09-09T12:34:48;6.85;;;2.53;;
25263;SDS011;13211;51.796;5.808;2022-09-09T12:37:49;6.43;;;1.90;;
25263;SDS011;13211;51.796;5.808;2022-09-09T12:40:21;8.55;;;2.03;;
25263;SDS011;13211;51.796;5.808;2022-09-09T12:42:53;7.53;;;2.17;;
25263;SDS011;13211;51.796;5.808;2022-09-09T12:45:24;4.60;;;1.80;;
25263;SDS011;13211;51.796;5.808;2022-09-09T12:48:08;9.82;;;2.50;;
25263;SDS011;13211;51.796;5.808;2022-09-09T12:50:48;9.38;;;1.88;;
25263;SDS011;13211;51.796;5.808;2022-09-09T12:53:25;8.48;;;2.13;;
25263;SDS011;13211;51.796;5.808;2022-09-09T12:56:09;13.05;;;2.45;;
25263;SDS011;13211;51.796;5.808;2022-09-09T12:58:50;9.18;;;2.42;;
25263;SDS011;13211;51.796;5.808;2022-09-09T13:01:28;13.82;;;2.58;;
25263;SDS011;13211;51.796;5.808;2022-09-09T13:03:59;8.25;;;2.25;;
25263;SDS011;13211;51.796;5.808;2022-09-09T13:06:29;9.18;;;2.22;;
25263;SDS011;13211;51.796;5.808;2022-09-09T13:09:01;12.52;;;2.75;;
25263;SDS011;13211;51.796;5.808;2022-09-09T13:11:39;9.48;;;2.47;;
25263;SDS011;13211;51.796;5.808;2022-09-09T13:14:31;7.47;;;2.00;;
25263;SDS011;13211;51.796;5.808;2022-09-09T13:17:05;7.22;;;2.38;;
25263;SDS011;13211;51.796;5.808;2022-09-09T13:19:35;10.10;;;2.20;;
25263;SDS011;13211;51.796;5.808;2022-09-09T13:22:14;6.93;;;2.05;;
25263;SDS011;13211;51.796;5.808;2022-09-09T13:24:58;8.07;;;1.90;;
25263;SDS011;13211;51.796;5.808;2022-09-09T13:27:39;10.15;;;1.95;;
25263;SDS011;13211;51.796;5.808;2022-09-09T13:30:22;10.85;;;1.98;;
25263;SDS011;13211;51.796;5.808;2022-09-09T13:41:06;7.97;;;2.10;;
25263;SDS011;13211;51.796;5.808;2022-09-09T13:43:45;9.27;;;2.28;;
25263;SDS011;13211;51.796;5.808;2022-09-09T13:51:41;7.93;;;2.63;;
25263;SDS011;13211;51.796;5.808;2022-09-09T13:54:13;12.13;;;2.90;;
25263;SDS011;13211;51.796;5.808;2022-09-09T13:56:42;7.47;;;2.63;;
25263;SDS011;13211;51.796;5.808;2022-09-09T13:59:12;10.95;;;3.03;;
25263;SDS011;13211;51.796;5.808;2022-09-09T14:01:42;10.77;;;2.75;;
25263;SDS011;13211;51.796;5.808;2022-09-09T14:04:10;9.65;;;2.85;;
25263;SDS011;13211;51.796;5.808;2022-09-09T14:06:45;9.25;;;3.05;;
25263;SDS011;13211;51.796;5.808;2022-09-09T14:09:13;11.57;;;2.53;;
25263;SDS011;13211;51.796;5.808;2022-09-09T14:11:44;11.15;;;2.95;;
25263;SDS011;13211;51.796;5.808;2022-09-09T14:14:13;8.85;;;2.78;;
25263;SDS011;13211;51.796;5.808;2022-09-09T14:16:43;11.52;;;2.88;;
25263;SDS011;13211;51.796;5.808;2022-09-09T14:19:14;10.32;;;2.35;;
25263;SDS011;13211;51.796;5.808;2022-09-09T14:24:09;6.85;;;2.38;;
25263;SDS011;13211;51.796;5.808;2022-09-09T14:26:36;8.82;;;2.67;;
25263;SDS011;13211;51.796;5.808;2022-09-09T14:29:04;6.55;;;1.80;;
25263;SDS011;13211;51.796;5.808;2022-09-09T14:31:32;8.68;;;2.33;;
25263;SDS011;13211;51.796;5.808;2022-09-09T14:33:59;9.15;;;2.08;;
25263;SDS011;13211;51.796;5.808;2022-09-09T14:36:27;9.15;;;1.98;;
25263;SDS011;13211;51.796;5.808;2022-09-09T14:38:55;9.57;;;2.35;;
25263;SDS011;13211;51.796;5.808;2022-09-09T14:41:22;6.07;;;2.33;;
25263;SDS011;13211;51.796;5.808;2022-09-09T14:43:52;7.95;;;2.10;;
25263;SDS011;13211;51.796;5.808;2022-09-09T14:46:20;7.95;;;2.17;;
25263;SDS011;13211;51.796;5.808;2022-09-09T14:48:49;8.02;;;2.13;;
25263;SDS011;13211;51.796;5.808;2022-09-09T14:51:17;5.47;;;1.88;;
25263;SDS011;13211;51.796;5.808;2022-09-09T14:53:46;10.63;;;2.70;;
25263;SDS011;13211;51.796;5.808;2022-09-09T14:56:15;9.25;;;2.53;;
25263;SDS011;13211;51.796;5.808;2022-09-09T14:58:44;8.32;;;2.60;;
25263;SDS011;13211;51.796;5.808;2022-09-09T15:01:16;6.45;;;1.80;;
25263;SDS011;13211;51.796;5.808;2022-09-09T15:03:52;6.38;;;1.75;;
25263;SDS011;13211;51.796;5.808;2022-09-09T15:06:23;7.40;;;1.40;;
25263;SDS011;13211;51.796;5.808;2022-09-09T15:08:57;10.00;;;1.70;;
25263;SDS011;13211;51.796;5.808;2022-09-09T15:11:28;8.77;;;1.88;;
25263;SDS011;13211;51.796;5.808;2022-09-09T15:14:05;8.30;;;1.83;;
25263;SDS011;13211;51.796;5.808;2022-09-09T15:16:33;7.13;;;1.95;;
25263;SDS011;13211;51.796;5.808;2022-09-09T15:19:02;6.00;;;1.70;;
25263;SDS011;13211;51.796;5.808;2022-09-09T15:21:33;8.82;;;1.73;;
25263;SDS011;13211;51.796;5.808;2022-09-09T15:24:07;8.48;;;1.90;;
25263;SDS011;13211;51.796;5.808;2022-09-09T15:26:42;9.40;;;1.90;;
25263;SDS011;13211;51.796;5.808;2022-09-09T15:31:38;7.72;;;1.55;;
25263;SDS011;13211;51.796;5.808;2022-09-09T15:34:06;8.07;;;1.65;;
25263;SDS011;13211;51.796;5.808;2022-09-09T15:36:38;7.75;;;1.90;;
25263;SDS011;13211;51.796;5.808;2022-09-09T15:39:08;8.02;;;1.83;;
25263;SDS011;13211;51.796;5.808;2022-09-09T15:41:42;13.32;;;2.22;;
25263;SDS011;13211;51.796;5.808;2022-09-09T15:44:11;7.68;;;1.65;;
25263;SDS011;13211;51.796;5.808;2022-09-09T15:46:40;10.65;;;1.95;;
25263;SDS011;13211;51.796;5.808;2022-09-09T15:49:11;5.57;;;1.58;;
25263;SDS011;13211;51.796;5.808;2022-09-09T15:51:40;8.73;;;2.05;;
25263;SDS011;13211;51.796;5.808;2022-09-09T15:54:22;7.97;;;1.70;;
25263;SDS011;13211;51.796;5.808;2022-09-09T15:56:52;6.10;;;1.73;;
25263;SDS011;13211;51.796;5.808;2022-09-09T15:59:27;11.52;;;1.77;;
25263;SDS011;13211;51.796;5.808;2022-09-09T16:01:57;4.10;;;1.50;;
25263;SDS011;13211;51.796;5.808;2022-09-09T16:04:27;6.03;;;1.10;;
25263;SDS011;13211;51.796;5.808;2022-09-09T16:07:00;3.70;;;1.20;;
25263;SDS011;13211;51.796;5.808;2022-09-09T16:09:31;5.05;;;1.45;;
25263;SDS011;13211;51.796;5.808;2022-09-09T16:12:02;4.80;;;1.40;;
25263;SDS011;13211;51.796;5.808;2022-09-09T16:14:37;4.55;;;1.30;;
25263;SDS011;13211;51.796;5.808;2022-09-09T16:17:06;5.03;;;1.50;;
25263;SDS011;13211;51.796;5.808;2022-09-09T16:19:41;2.28;;;1.10;;
25263;SDS011;13211;51.796;5.808;2022-09-09T16:22:09;2.55;;;1.20;;
25263;SDS011;13211;51.796;5.808;2022-09-09T16:27:40;3.05;;;1.10;;
25263;SDS011;13211;51.796;5.808;2022-09-09T16:30:08;4.35;;;1.48;;
25263;SDS011;13211;51.796;5.808;2022-09-09T16:32:43;1.90;;;1.15;;
25263;SDS011;13211;51.796;5.808;2022-09-09T16:35:11;8.00;;;1.33;;
25263;SDS011;13211;51.796;5.808;2022-09-09T16:37:38;4.65;;;1.30;;
25263;SDS011;13211;51.796;5.808;2022-09-09T16:40:10;2.78;;;1.20;;
25263;SDS011;13211;51.796;5.808;2022-09-09T16:42:41;7.32;;;1.40;;
25263;SDS011;13211;51.796;5.808;2022-09-09T16:45:09;4.32;;;1.25;;
25263;SDS011;13211;51.796;5.808;2022-09-09T16:47:41;4.07;;;1.30;;
25263;SDS011;13211;51.796;5.808;2022-09-09T16:50:08;4.60;;;1.17;;
25263;SDS011;13211;51.796;5.808;2022-09-09T16:52:36;4.25;;;1.38;;
25263;SDS011;13211;51.796;5.808;2022-09-09T16:55:04;4.43;;;1.55;;
25263;SDS011;13211;51.796;5.808;2022-09-09T16:57:32;4.65;;;1.20;;
25263;SDS011;13211;51.796;5.808;2022-09-09T17:00:02;3.92;;;1.02;;
25263;SDS011;13211;51.796;5.808;2022-09-09T17:02:32;2.30;;;1.05;;
25263;SDS011;13211;51.796;5.808;2022-09-09T17:04:59;4.30;;;1.23;;
25263;SDS011;13211;51.796;5.808;2022-09-09T17:07:28;3.90;;;1.13;;
25263;SDS011;13211;51.796;5.808;2022-09-09T17:09:56;10.57;;;1.67;;
25263;SDS011;13211;51.796;5.808;2022-09-09T17:12:23;4.03;;;1.38;;
25263;SDS011;13211;51.796;5.808;2022-09-09T17:14:53;2.88;;;1.13;;
25263;SDS011;13211;51.796;5.808;2022-09-09T17:17:22;2.78;;;1.50;;
25263;SDS011;13211;51.796;5.808;2022-09-09T17:19:58;4.97;;;1.40;;
25263;SDS011;13211;51.796;5.808;2022-09-09T17:22:27;3.67;;;1.35;;
25263;SDS011;13211;51.796;5.808;2022-09-09T17:24:57;2.53;;;1.40;;
25263;SDS011;13211;51.796;5.808;2022-09-09T17:27:25;3.97;;;1.30;;
25263;SDS011;13211;51.796;5.808;2022-09-09T17:29:53;2.70;;;1.27;;
25263;SDS011;13211;51.796;5.808;2022-09-09T17:32:21;2.17;;;1.10;;
25263;SDS011;13211;51.796;5.808;2022-09-09T17:34:52;1.88;;;1.20;;
25263;SDS011;13211;51.796;5.808;2022-09-09T17:37:20;2.63;;;1.35;;
25263;SDS011;13211;51.796;5.808;2022-09-09T17:39:50;2.80;;;1.20;;
25263;SDS011;13211;51.796;5.808;2022-09-09T17:42:20;2.50;;;1.30;;
25263;SDS011;13211;51.796;5.808;2022-09-09T17:44:56;7.93;;;1.38;;
25263;SDS011;13211;51.796;5.808;2022-09-09T17:47:25;2.00;;;1.30;;
25263;SDS011;13211;51.796;5.808;2022-09-09T17:49:56;3.40;;;1.60;;
25263;SDS011;13211;51.796;5.808;2022-09-09T17:55:02;5.18;;;1.77;;